»·PEaware :: AAL1619 KLAS-KLAX

AAL1619 :: KLAS-KLAX

FLIGHT INFORMATION

Flight Status: Arrived
Operator:
American Airlines
More flights by this operator :: More flights under this callsign
Pilot: Jaden S. (17663)
Aircraft: BOEING 737-800
(B738)
More flights by this aircraft type
Origin: KLAS McCarran Intl
United States
Destination: KLAX Los Angeles Intl
United States
More flights between these airports :: More routes between these airports
Route: +BOACH8 RIKII SHTNR ANJLL2
File this flight plan on PilotEdge
Remarks:
Altitude:
(Current/Filed)
30,000ft
Speed:
(Current/Filed)
400kts
Departed: 28-Dec-17 12:23 PM
Arrived: 28-Dec-17 01:03 PM
Distance/Time
Traveled:
205nm/0:39
Distance/Time
To Go:
Arrived

Flight Plot

Page will automatically refresh every two minutes.

Flight plan parsing failed; only flown route is shown


Map Options




Map Legend


Flown Route
Filed Route
Departure Airport
Arrival Airport
Navaid (VOR, NDB)
Fix

Horizontal Profiles

Position Reports

Time Latitude Longitude Heading Altitude Ground
Speed
28-Dec-17 12:09 36.080333 -115.136060 41 2188ft 0kts
28-Dec-17 12:10 36.080333 -115.136060 41 2189ft 0kts
28-Dec-17 12:11 36.080333 -115.136060 41 2189ft 0kts
28-Dec-17 12:12 36.080333 -115.136060 41 2189ft 0kts
28-Dec-17 12:13 36.080333 -115.136060 41 2189ft 0kts
28-Dec-17 12:14 36.080333 -115.136060 41 2189ft 0kts
28-Dec-17 12:15 36.080333 -115.136060 41 2189ft 0kts
28-Dec-17 12:16 36.080333 -115.136060 41 2189ft 0kts
28-Dec-17 12:17 36.080333 -115.136060 41 2189ft 0kts
28-Dec-17 12:18 36.080333 -115.136060 41 2189ft 0kts
28-Dec-17 12:19 36.080333 -115.136060 41 2189ft 0kts
28-Dec-17 12:20 36.080333 -115.136060 41 2189ft 0kts
28-Dec-17 12:21 36.080333 -115.136060 41 2189ft 0kts
28-Dec-17 12:22 36.080084 -115.136356 45 2189ft 2kts
28-Dec-17 12:23 36.079790 -115.136952 117 2189ft 2kts
28-Dec-17 12:24 36.079908 -115.137145 132 2189ft 0kts
28-Dec-17 12:25 36.079894 -115.137126 132 2189ft 2kts
28-Dec-17 12:26 36.078223 -115.133113 93 2189ft 20kts
28-Dec-17 12:27 36.078229 -115.126108 89 2189ft 22kts
28-Dec-17 12:28 36.077270 -115.122391 175 2189ft 13kts
28-Dec-17 12:29 36.076328 -115.141526 268 2228ft 159kts
28-Dec-17 12:30 36.076336 -115.201050 269 4604ft 211kts
28-Dec-17 12:31 36.045577 -115.271749 198 6693ft 281kts
28-Dec-17 12:32 35.970049 -115.300306 194 7036ft 285kts
28-Dec-17 12:33 35.888942 -115.311518 185 10359ft 301kts
28-Dec-17 12:34 35.797309 -115.308831 174 12198ft 366kts
28-Dec-17 12:35 35.691769 -115.296250 175 14834ft 391kts
28-Dec-17 12:36 35.580417 -115.298391 183 17405ft 409kts
28-Dec-17 12:37 35.468621 -115.328393 209 19762ft 421kts
28-Dec-17 12:38 35.366289 -115.402656 213 21912ft 435kts
28-Dec-17 12:39 35.259859 -115.480214 212 23348ft 451kts
28-Dec-17 12:40 35.152539 -115.558165 215 24286ft 454kts
28-Dec-17 12:41 35.058089 -115.661717 229 26016ft 460kts
28-Dec-17 12:42 34.969139 -115.776588 229 27563ft 471kts
28-Dec-17 12:43 34.878731 -115.892191 229 29393ft 469kts
28-Dec-17 12:44 34.788334 -116.007785 229 30378ft 472kts
28-Dec-17 12:45 34.698155 -116.122339 229 30376ft 469kts
28-Dec-17 12:46 34.608129 -116.236494 229 30391ft 466kts
28-Dec-17 12:47 34.519002 -116.348859 229 30148ft 456kts
28-Dec-17 12:48 34.433260 -116.458057 233 28280ft 440kts
28-Dec-17 12:49 34.372916 -116.583384 247 26304ft 424kts
28-Dec-17 12:50 34.321326 -116.709829 247 24330ft 416kts
28-Dec-17 12:51 34.271537 -116.833712 247 22468ft 405kts
28-Dec-17 12:52 34.222483 -116.954890 246 20578ft 395kts
28-Dec-17 12:53 34.185742 -117.076477 254 18932ft 379kts
28-Dec-17 12:54 34.153748 -117.194695 253 16677ft 367kts
28-Dec-17 12:55 34.122441 -117.308250 252 14940ft 343kts
28-Dec-17 12:56 34.092816 -117.419782 254 13264ft 351kts
28-Dec-17 12:57 34.063531 -117.528424 247 12018ft 317kts
28-Dec-17 12:58 34.030403 -117.617864 246 12015ft 291kts
28-Dec-17 12:59 34.002596 -117.712168 262 12019ft 302kts
28-Dec-17 13:00 33.994202 -117.812851 263 11370ft 297kts
28-Dec-17 13:01 33.984650 -117.911770 264 9377ft 303kts
28-Dec-17 13:02 33.975519 -118.009041 262 7670ft 290kts
28-Dec-17 13:03 33.966131 -118.101417 262 5758ft 260kts
28-Dec-17 13:04 33.957997 -118.180984 262 3375ft 214kts
28-Dec-17 13:05 33.951614 -118.243388 262 2375ft 171kts
28-Dec-17 13:06 33.946179 -118.296520 262 1529ft 149kts
28-Dec-17 13:07 33.940637 -118.345905 263 746ft 148kts
28-Dec-17 13:08 33.936408 -118.392167 261 134ft 95kts
28-Dec-17 13:09 33.936229 -118.398706 297 134ft 0kts
28-Dec-17 13:10 33.936229 -118.398708 297 134ft 0kts
28-Dec-17 13:11 33.936624 -118.399657 291 134ft 0kts
28-Dec-17 13:12 33.936537 -118.401682 264 134ft 11kts
28-Dec-17 13:13 33.937587 -118.404973 317 134ft 4kts
28-Dec-17 13:14 33.938503 -118.405378 347 134ft 18kts
28-Dec-17 13:15 33.940525 -118.404962 83 134ft 0kts
28-Dec-17 13:16 33.940525 -118.404962 83 134ft 0kts

Navigation Log

Ident Type
Flight plan parsing failed, navigation log unavailable